Time;durP1;ratioP1;P1;durP2;ratioP2;P2;SDS_P1;SDS_P2;PMS_P1;PMS_P2;Temp;Humidity;BMP_temperature;BMP_pressure;BME280_temperature;BME280_humidity;BME280_pressure;Samples;Min_cycle;Max_cycle;Signal;HPM_P1;HPM_P2
2022/06/05 00:01:57;;;;;;;10.93;10.03;;;;;;;22.04;100.00;99269.34;5114618;28;20975;-87
2022/06/05 00:04:35;;;;;;;10.63;9.73;;;;;;;22.10;100.00;99270.56;5114354;27;20857;-86
2022/06/05 00:07:11;;;;;;;11.23;10.03;;;;;;;21.98;100.00;99256.34;5114416;28;20436;-86
2022/06/05 00:09:48;;;;;;;10.00;8.97;;;;;;;21.85;100.00;99256.84;5113947;28;20958;-85
2022/06/05 00:12:21;;;;;;;10.90;10.00;;;;;;;21.65;100.00;99233.53;5115494;28;20427;-87
2022/06/05 00:14:48;;;;;;;10.43;9.53;;;;;;;21.45;100.00;99220.13;5113916;28;20906;-87
2022/06/05 00:17:16;;;;;;;10.93;10.03;;;;;;;21.32;100.00;99205.19;5113860;28;20564;-88
2022/06/05 00:19:47;;;;;;;10.83;9.83;;;;;;;21.29;100.00;99187.22;5113126;28;20447;-86
2022/06/05 00:22:14;;;;;;;10.10;9.20;;;;;;;21.20;100.00;99180.00;5113302;28;20433;-87
2022/06/05 00:24:41;;;;;;;9.60;8.80;;;;;;;21.33;100.00;99166.69;5113271;28;20530;-87
2022/06/05 00:27:19;;;;;;;9.50;8.70;;;;;;;21.43;100.00;99158.34;5113672;28;20449;-86
2022/06/05 00:30:01;;;;;;;8.97;8.17;;;;;;;21.39;100.00;99141.38;5092809;28;20461;-86
2022/06/05 00:32:37;;;;;;;9.73;8.93;;;;;;;21.33;100.00;99128.34;5093450;28;20426;-86
2022/06/05 00:35:04;;;;;;;8.20;7.50;;;;;;;21.37;100.00;99107.84;5092691;28;20525;-86
2022/06/05 00:37:41;;;;;;;8.43;7.70;;;;;;;21.47;100.00;99090.41;5094308;28;20529;-86
2022/06/05 00:40:38;;;;;;;8.10;7.40;;;;;;;21.44;100.00;99070.53;5093350;28;20525;-85
2022/06/05 00:43:10;;;;;;;9.80;8.90;;;;;;;21.45;100.00;99068.66;5092793;28;20525;-86
2022/06/05 00:45:39;;;;;;;10.23;9.17;;;;;;;21.37;100.00;99063.13;5093170;28;20932;-85
2022/06/05 00:48:06;;;;;;;8.73;7.93;;;;;;;21.54;100.00;99064.88;5092391;28;20444;-86
2022/06/05 00:50:34;;;;;;;8.27;7.57;;;;;;;21.38;100.00;99065.72;5092808;28;20561;-86
2022/06/05 00:53:04;;;;;;;8.77;8.00;;;;;;;21.43;100.00;99070.72;5092572;28;20541;-86
2022/06/05 00:55:43;;;;;;;10.20;9.30;;;;;;;21.36;100.00;99056.81;5092484;28;20521;-86
2022/06/05 00:58:11;;;;;;;13.30;9.00;;;;;;;21.27;100.00;99054.25;5099554;28;20524;-86
2022/06/05 01:00:43;;;;;;;10.70;9.70;;;;;;;21.27;100.00;99057.00;5112655;28;20435;-86
2022/06/05 01:03:11;;;;;;;9.97;8.97;;;;;;;21.27;100.00;99051.53;5112841;28;20433;-86
2022/06/05 01:05:40;;;;;;;10.30;9.40;;;;;;;21.34;100.00;99045.16;5112700;28;20425;-86
2022/06/05 01:08:08;;;;;;;9.40;8.50;;;;;;;21.32;100.00;99041.75;5112652;27;20487;-86
2022/06/05 01:10:41;;;;;;;10.27;9.17;;;;;;;21.33;100.00;99029.78;5112850;28;20917;-86
2022/06/05 01:13:19;;;;;;;9.87;9.07;;;;;;;21.58;100.00;99035.28;5112325;28;20440;-87
2022/06/05 01:15:55;;;;;;;9.47;8.57;;;;;;;21.47;100.00;99017.31;5112994;28;20514;-86
2022/06/05 01:18:31;;;;;;;9.40;8.60;;;;;;;21.46;100.00;99029.31;5111623;28;20547;-86
2022/06/05 01:21:14;;;;;;;9.83;9.03;;;;;;;21.62;100.00;99018.31;5112536;28;20432;-86
2022/06/05 01:23:54;;;;;;;10.20;9.30;;;;;;;21.39;100.00;99020.00;5112853;28;20824;-86
2022/06/05 01:26:28;;;;;;;11.03;10.03;;;;;;;21.55;100.00;99019.16;5112415;28;20431;-86
2022/06/05 01:29:00;;;;;;;9.33;8.40;;;;;;;21.42;100.00;99019.72;5101082;28;21018;-86
2022/06/05 01:31:31;;;;;;;9.90;9.10;;;;;;;21.39;100.00;99017.28;5111969;28;20473;-86
2022/06/05 01:34:08;;;;;;;10.80;9.90;;;;;;;21.48;100.00;99029.97;5112668;28;20778;-86
2022/06/05 01:36:42;;;;;;;11.07;9.20;;;;;;;21.61;100.00;99034.91;5112325;28;20487;-86
2022/06/05 01:39:13;;;;;;;11.13;9.80;;;;;;;21.41;100.00;99037.16;5112464;28;20464;-86
2022/06/05 01:41:45;;;;;;;10.80;9.03;;;;;;;21.08;100.00;99023.47;5112447;28;20938;-85
2022/06/05 01:44:16;;;;;;;10.20;9.30;;;;;;;21.13;100.00;99012.84;5112943;28;20536;-86
2022/06/05 01:46:43;;;;;;;9.37;8.40;;;;;;;21.14;100.00;98998.16;5112051;28;20429;-86
2022/06/05 01:49:16;;;;;;;10.47;9.50;;;;;;;20.87;100.00;98996.59;5112512;28;20481;-86
2022/06/05 01:51:49;;;;;;;10.50;9.40;;;;;;;20.85;100.00;98987.72;5112482;28;20481;-86
2022/06/05 01:54:20;;;;;;;11.37;10.37;;;;;;;20.80;100.00;98985.47;5112285;28;20508;-86
2022/06/05 01:56:52;;;;;;;10.97;9.97;;;;;;;20.72;100.00;98985.47;5112120;28;20433;-87
2022/06/05 01:59:23;;;;;;;11.70;10.70;;;;;;;20.87;100.00;98987.53;5112226;28;20429;-86
2022/06/05 02:01:56;;;;;;;10.77;9.80;;;;;;;20.96;100.00;98962.75;5112142;28;20504;-86
2022/06/05 02:04:32;;;;;;;10.23;9.37;;;;;;;20.90;100.00;98949.75;5111991;28;20441;-85
2022/06/05 02:07:04;;;;;;;10.40;9.47;;;;;;;20.91;100.00;98951.44;5112354;28;20810;-86
2022/06/05 02:09:35;;;;;;;10.37;9.43;;;;;;;20.84;100.00;98958.63;5111593;28;20439;-86
2022/06/05 02:12:06;;;;;;;10.20;9.40;;;;;;;20.71;100.00;98982.88;5111922;28;20523;-86
2022/06/05 02:14:33;;;;;;;11.57;10.47;;;;;;;20.81;100.00;98995.38;5111904;28;20429;-86
2022/06/05 02:17:00;;;;;;;10.20;9.30;;;;;;;20.88;100.00;99002.94;5111972;28;20508;-87
2022/06/05 02:19:28;;;;;;;9.70;8.90;;;;;;;20.94;100.00;99019.53;5112388;28;20508;-86
2022/06/05 02:22:03;;;;;;;9.73;8.83;;;;;;;20.94;100.00;99043.28;5111883;28;20512;-86
2022/06/05 02:24:30;;;;;;;9.70;8.80;;;;;;;20.92;100.00;99051.66;5111676;28;20528;-87
2022/06/05 02:26:59;;;;;;;10.60;9.70;;;;;;;20.95;100.00;99073.22;5111467;28;20536;-86
2022/06/05 02:29:27;;;;;;;12.80;10.20;;;;;;;20.95;100.00;99084.16;5112229;28;20545;-86
2022/06/05 02:32:08;;;;;;;9.03;8.30;;;;;;;20.79;100.00;99087.72;5111519;28;20615;-86
2022/06/05 02:34:43;;;;;;;10.10;9.30;;;;;;;21.03;100.00;99114.28;5111686;28;20435;-86
2022/06/05 02:37:26;;;;;;;10.80;9.67;;;;;;;21.23;100.00;99134.00;5112246;28;20788;-86
2022/06/05 02:40:03;;;;;;;9.27;8.47;;;;;;;21.27;100.00;99142.72;5115857;28;20444;-86
2022/06/05 02:42:34;;;;;;;9.70;8.90;;;;;;;21.32;100.00;99134.84;5115313;28;20432;-86
2022/06/05 02:45:14;;;;;;;10.70;9.63;;;;;;;21.38;100.00;99134.19;5115837;28;20445;-86
2022/06/05 02:47:48;;;;;;;10.20;9.30;;;;;;;21.36;100.00;99138.13;5100404;28;20486;-86
2022/06/05 02:50:22;;;;;;;10.10;9.07;;;;;;;21.38;100.00;99166.19;5115676;28;20861;-87
2022/06/05 02:52:51;;;;;;;10.20;9.30;;;;;;;21.36;100.00;99169.09;5115660;28;20437;-86
2022/06/05 02:55:20;;;;;;;10.40;9.40;;;;;;;21.34;100.00;99171.13;5115615;28;20500;-87
2022/06/05 02:57:47;;;;;;;10.60;9.60;;;;;;;21.34;100.00;99162.91;5115158;28;20531;-87
2022/06/05 03:00:19;;;;;;;11.87;10.87;;;;;;;21.37;100.00;99169.94;5115566;28;20479;-87
2022/06/05 03:05:30;;;;;;;10.40;9.50;;;;;;;21.34;100.00;99173.88;5115107;28;20404;-86
2022/06/05 03:07:56;;;;;;;10.00;9.07;;;;;;;21.47;100.00;99180.78;5115093;27;20425;-86
2022/06/05 03:10:23;;;;;;;10.63;9.50;;;;;;;21.40;100.00;99186.03;5115042;28;20484;-86
2022/06/05 03:12:50;;;;;;;10.80;9.90;;;;;;;21.45;100.00;99195.47;5114845;28;20911;-86
2022/06/05 03:15:18;;;;;;;9.40;8.50;;;;;;;21.55;100.00;99195.34;5115265;28;20432;-85
2022/06/05 03:17:46;;;;;;;10.07;9.07;;;;;;;21.64;100.00;99205.28;5114547;27;20564;-86
2022/06/05 03:20:14;;;;;;;10.17;8.83;;;;;;;21.45;100.00;99203.69;5114787;28;20516;-86
2022/06/05 03:22:41;;;;;;;10.37;9.27;;;;;;;21.49;100.00;99208.88;5114626;28;20513;-86
2022/06/05 03:25:09;;;;;;;9.87;8.80;;;;;;;21.22;100.00;99219.03;5114817;28;20517;-87
2022/06/05 03:27:35;;;;;;;11.20;10.10;;;;;;;21.28;100.00;99223.84;5114936;28;20516;-86
2022/06/05 03:30:03;;;;;;;11.50;8.33;;;;;;;21.30;100.00;99235.50;5114929;28;20942;-86
2022/06/05 03:32:31;;;;;;;10.93;9.93;;;;;;;21.34;100.00;99244.22;5114436;28;20441;-87
2022/06/05 03:34:58;;;;;;;10.87;9.70;;;;;;;21.40;100.00;99258.13;5114629;28;20437;-86
2022/06/05 03:37:25;;;;;;;11.23;9.70;;;;;;;21.49;100.00;99260.91;5114548;28;20442;-87
2022/06/05 03:39:51;;;;;;;10.73;8.70;;;;;;;21.43;100.00;99276.94;5114584;28;20445;-86
2022/06/05 03:42:18;;;;;;;10.30;9.20;;;;;;;21.34;100.00;99277.06;5114463;28;20504;-86
2022/06/05 03:44:45;;;;;;;9.00;8.10;;;;;;;21.18;100.00;99269.66;5114300;28;20536;-86
2022/06/05 03:47:12;;;;;;;9.00;8.20;;;;;;;21.23;100.00;99278.22;5113889;28;20425;-86
2022/06/05 03:49:40;;;;;;;10.30;7.60;;;;;;;21.15;100.00;99297.38;5114113;28;20988;-87
2022/06/05 03:52:09;;;;;;;9.37;7.20;;;;;;;21.14;100.00;99293.78;5113148;28;20565;-86
2022/06/05 03:54:39;;;;;;;7.90;7.17;;;;;;;21.12;100.00;99294.94;5112403;28;20445;-86
2022/06/05 03:57:07;;;;;;;9.90;7.90;;;;;;;21.02;100.00;99276.78;5113861;28;20524;-86
2022/06/05 03:59:35;;;;;;;8.40;7.60;;;;;;;21.04;100.00;99274.72;5113968;28;20517;-86
2022/06/05 04:02:02;;;;;;;10.13;8.13;;;;;;;21.06;100.00;99277.31;5113959;28;20494;-86
2022/06/05 04:04:28;;;;;;;7.80;7.00;;;;;;;21.08;100.00;99283.50;5113693;28;20528;-86
2022/06/05 04:06:56;;;;;;;8.90;8.00;;;;;;;20.98;100.00;99286.34;5113832;28;20508;-87
2022/06/05 04:09:23;;;;;;;7.37;6.73;;;;;;;20.86;100.00;99276.69;5114168;28;20967;-86
2022/06/05 04:11:50;;;;;;;8.17;7.37;;;;;;;20.85;100.00;99268.66;5113839;28;20982;-86
2022/06/05 04:14:17;;;;;;;7.90;7.07;;;;;;;20.85;100.00;99249.50;5113378;28;20911;-86
2022/06/05 04:16:43;;;;;;;9.03;6.87;;;;;;;20.82;100.00;99261.63;5113298;28;20564;-85
2022/06/05 04:19:10;;;;;;;6.67;6.07;;;;;;;20.74;100.00;99251.50;5113360;28;20433;-86
2022/06/05 04:21:38;;;;;;;9.10;6.90;;;;;;;20.83;100.00;99250.53;5113375;28;20427;-86
2022/06/05 04:24:06;;;;;;;10.10;6.90;;;;;;;20.51;100.00;99245.72;5113372;28;20437;-86
2022/06/05 04:26:35;;;;;;;10.60;7.27;;;;;;;20.55;100.00;99258.03;5113583;28;20508;-86
2022/06/05 04:29:02;;;;;;;7.67;6.97;;;;;;;20.56;100.00;99259.78;5113113;28;20430;-86
2022/06/05 04:31:30;;;;;;;7.73;6.93;;;;;;;20.54;100.00;99250.84;5113071;28;20481;-86
2022/06/05 04:33:59;;;;;;;8.00;6.63;;;;;;;20.72;100.00;99237.13;5113144;28;20431;-86
2022/06/05 04:36:26;;;;;;;8.13;6.43;;;;;;;20.74;100.00;99234.25;5113660;27;20500;-86
2022/06/05 04:38:53;;;;;;;11.90;7.03;;;;;;;20.64;100.00;99228.03;5111984;28;20457;-86
2022/06/05 04:41:22;;;;;;;8.63;6.90;;;;;;;20.46;100.00;99223.44;5113498;28;20909;-86
2022/06/05 04:43:50;;;;;;;10.83;8.77;;;;;;;20.28;100.00;99228.97;5113121;28;20432;-87
2022/06/05 04:46:17;;;;;;;8.50;7.67;;;;;;;20.28;100.00;99222.63;5113237;28;20445;-86
2022/06/05 04:48:44;;;;;;;8.70;7.90;;;;;;;20.26;100.00;99211.88;5113516;28;20431;-86
2022/06/05 04:51:13;;;;;;;11.90;8.07;;;;;;;20.05;100.00;99179.44;5113429;28;20986;-86
2022/06/05 04:53:41;;;;;;;9.00;8.10;;;;;;;19.92;100.00;99151.69;5112849;28;20433;-87
2022/06/05 04:56:10;;;;;;;11.23;8.90;;;;;;;20.04;100.00;99158.59;5112882;28;20507;-84
2022/06/05 04:58:39;;;;;;;8.20;7.40;;;;;;;20.11;100.00;99165.13;5113175;28;20418;-84
2022/06/05 05:01:11;;;;;;;10.10;7.87;;;;;;;20.38;100.00;99149.59;5112040;27;20444;-84
2022/06/05 05:03:38;;;;;;;7.83;7.03;;;;;;;20.42;100.00;99126.38;5113093;28;20826;-84
2022/06/05 05:06:04;;;;;;;7.80;7.00;;;;;;;20.18;100.00;99105.22;5112838;28;21189;-84
2022/06/05 05:08:31;;;;;;;8.90;6.50;;;;;;;20.11;100.00;99113.22;5112786;28;20877;-84
2022/06/05 05:10:58;;;;;;;8.90;6.00;;;;;;;20.12;100.00;99103.97;5112801;28;20465;-84
2022/06/05 05:13:25;;;;;;;7.27;6.60;;;;;;;20.02;100.00;99061.41;5112661;28;20510;-85
2022/06/05 05:15:55;;;;;;;11.03;5.83;;;;;;;19.76;100.00;99027.66;5112475;28;20436;-85
2022/06/05 05:18:22;;;;;;;8.30;6.40;;;;;;;20.05;100.00;99039.22;5112460;28;20844;-85
2022/06/05 05:20:51;;;;;;;6.30;5.27;;;;;;;20.24;100.00;99051.78;5113047;28;20486;-85
2022/06/05 05:23:19;;;;;;;9.77;6.87;;;;;;;20.38;100.00;99037.50;5113056;28;21146;-86
2022/06/05 05:25:46;;;;;;;8.23;5.30;;;;;;;20.58;100.00;99036.22;5112968;28;21024;-85
2022/06/05 05:28:13;;;;;;;6.50;5.10;;;;;;;20.60;100.00;99039.63;5112573;28;20519;-85
2022/06/05 05:30:43;;;;;;;6.50;4.77;;;;;;;20.70;100.00;99035.91;5113084;28;20520;-85
2022/06/05 05:33:12;;;;;;;5.10;4.60;;;;;;;20.82;100.00;99031.81;5112603;28;20517;-85
2022/06/05 05:35:39;;;;;;;4.13;3.70;;;;;;;20.87;100.00;99031.28;5112861;28;20511;-85
2022/06/05 05:38:06;;;;;;;5.60;4.50;;;;;;;20.89;100.00;99037.47;5112358;28;20486;-84
2022/06/05 05:43:17;;;;;;;5.20;4.47;;;;;;;21.13;100.00;99033.91;5111217;28;20423;-84
2022/06/05 05:45:45;;;;;;;5.90;4.23;;;;;;;21.18;100.00;99035.09;5112132;28;20437;-84
2022/06/05 05:48:13;;;;;;;6.67;5.10;;;;;;;21.21;100.00;99031.16;5093220;28;20430;-84
2022/06/05 05:50:43;;;;;;;4.33;3.70;;;;;;;21.27;100.00;99029.63;5092287;28;20832;-85
2022/06/05 05:53:10;;;;;;;4.80;4.30;;;;;;;21.54;100.00;99029.28;5092424;28;20854;-85
2022/06/05 05:55:37;;;;;;;7.20;4.47;;;;;;;21.59;100.00;99029.59;5092493;28;20907;-85
2022/06/05 05:58:03;;;;;;;5.93;5.43;;;;;;;21.83;100.00;99031.44;5111507;28;20903;-86
2022/06/05 06:00:30;;;;;;;5.53;4.40;;;;;;;21.97;100.00;99023.53;5112384;28;20927;-84
2022/06/05 06:02:58;;;;;;;6.73;4.10;;;;;;;22.08;100.00;99026.72;5112045;28;20425;-86
2022/06/05 06:05:26;;;;;;;5.67;4.20;;;;;;;22.02;100.00;99027.44;5112239;28;20519;-85
2022/06/05 06:07:52;;;;;;;5.40;5.00;;;;;;;22.27;100.00;99035.59;5111905;28;20429;-85
2022/06/05 06:10:19;;;;;;;5.40;4.20;;;;;;;22.46;100.00;99034.34;5112344;28;20915;-86
2022/06/05 06:12:46;;;;;;;7.07;4.63;;;;;;;22.34;100.00;99043.97;5115016;28;20484;-84
2022/06/05 06:15:12;;;;;;;7.43;4.13;;;;;;;22.28;100.00;99037.31;5116442;28;20423;-85
2022/06/05 06:17:39;;;;;;;5.87;4.30;;;;;;;22.25;100.00;99044.03;5115775;28;20472;-85
2022/06/05 06:20:07;;;;;;;8.97;4.40;;;;;;;22.07;100.00;99036.00;5116316;28;20443;-85
2022/06/05 06:22:35;;;;;;;5.30;4.30;;;;;;;22.12;100.00;99057.41;5115880;28;20422;-85
2022/06/05 06:25:02;;;;;;;5.67;4.20;;;;;;;22.19;100.00;99063.88;5115609;28;20437;-84
2022/06/05 06:27:29;;;;;;;4.40;4.00;;;;;;;22.11;100.00;99079.50;5115506;28;20877;-85
2022/06/05 06:29:55;;;;;;;5.40;4.27;;;;;;;22.01;100.00;99066.00;5115831;28;20439;-85
2022/06/05 06:32:22;;;;;;;5.70;4.07;;;;;;;21.99;100.00;99079.03;5115843;28;20889;-85
2022/06/05 06:34:49;;;;;;;4.17;3.77;;;;;;;21.90;100.00;99072.72;5115448;28;20535;-84
2022/06/05 06:37:16;;;;;;;4.80;3.73;;;;;;;21.84;100.00;99076.13;5115500;28;20508;-85
2022/06/05 06:39:44;;;;;;;5.33;3.70;;;;;;;21.74;100.00;99090.03;5115804;28;20543;-85
2022/06/05 06:42:11;;;;;;;5.73;3.60;;;;;;;21.77;100.00;99092.41;5115652;28;20448;-85
2022/06/05 06:44:37;;;;;;;5.50;5.00;;;;;;;21.75;100.00;99091.72;5115655;28;20922;-86
2022/06/05 06:47:04;;;;;;;5.63;3.73;;;;;;;21.80;100.00;99093.97;5115294;28;20508;-86
2022/06/05 06:49:33;;;;;;;5.10;3.83;;;;;;;21.97;100.00;99087.41;5115625;28;20970;-85
2022/06/05 06:52:01;;;;;;;5.33;3.97;;;;;;;22.03;100.00;99083.13;5115639;28;21011;-85
2022/06/05 06:54:27;;;;;;;4.37;3.97;;;;;;;22.01;100.00;99083.31;5115049;28;20425;-85
2022/06/05 06:56:55;;;;;;;4.40;3.50;;;;;;;22.11;100.00;99082.25;5124138;27;20523;-86
2022/06/05 06:59:23;;;;;;;8.17;4.00;;;;;;;22.23;100.00;99084.47;5118515;27;20516;-86
2022/06/05 07:01:50;;;;;;;4.33;3.93;;;;;;;22.56;100.00;99087.06;5114943;28;20437;-84
2022/06/05 07:04:17;;;;;;;4.53;3.27;;;;;;;22.85;100.00;99077.31;5115416;28;20920;-84
2022/06/05 07:06:44;;;;;;;4.90;3.90;;;;;;;23.09;100.00;99076.34;5115287;28;20836;-85
2022/06/05 07:09:13;;;;;;;4.53;4.10;;;;;;;22.87;100.00;99075.25;5115078;28;20524;-85
2022/06/05 07:11:40;;;;;;;5.23;3.90;;;;;;;22.91;100.00;99076.59;5115297;28;20978;-84
2022/06/05 07:14:09;;;;;;;4.03;3.30;;;;;;;22.71;100.00;99067.13;5115279;28;20427;-87
2022/06/05 07:16:36;;;;;;;5.30;3.97;;;;;;;23.01;100.00;99066.25;5114188;28;20477;-85
2022/06/05 07:19:03;;;;;;;4.83;3.90;;;;;;;22.98;100.00;99065.75;5115488;28;20510;-86
2022/06/05 07:21:29;;;;;;;7.53;4.00;;;;;;;22.98;100.00;99061.13;5115008;28;20457;-85
2022/06/05 07:23:57;;;;;;;7.23;5.37;;;;;;;22.94;100.00;99053.44;5115300;28;20472;-85
2022/06/05 07:26:27;;;;;;;3.67;3.23;;;;;;;22.72;100.00;99052.34;5114410;28;20520;-83
2022/06/05 07:28:56;;;;;;;5.80;3.87;;;;;;;22.85;100.00;99050.72;5115692;28;20447;-84
2022/06/05 07:31:26;;;;;;;4.23;3.83;;;;;;;22.83;100.00;99046.47;5114451;28;20433;-85
2022/06/05 07:33:52;;;;;;;6.63;3.80;;;;;;;22.94;100.00;99050.69;5095460;28;20421;-84
2022/06/05 07:36:20;;;;;;;4.27;3.80;;;;;;;23.25;100.00;99056.16;5095182;28;20425;-86
2022/06/05 07:38:48;;;;;;;5.50;3.67;;;;;;;23.36;100.00;99052.97;5101499;28;20953;-83
2022/06/05 07:41:17;;;;;;;4.40;3.90;;;;;;;23.50;100.00;99049.41;5114645;28;20444;-79
2022/06/05 07:43:44;;;;;;;5.27;4.70;;;;;;;22.87;100.00;99053.28;5114084;28;20482;-80
2022/06/05 07:46:12;;;;;;;6.00;4.00;;;;;;;23.16;100.00;99057.25;5114039;28;20421;-80
2022/06/05 07:48:41;;;;;;;4.70;4.30;;;;;;;23.23;100.00;99061.81;5114522;28;20931;-79
2022/06/05 07:56:39;;;;;;;4.90;4.50;;;;;;;24.07;100.00;99058.13;5113814;28;20474;-79
2022/06/05 07:59:05;;;;;;;5.30;4.80;;;;;;;24.30;100.00;99074.53;5114188;28;20428;-79
2022/06/05 08:01:32;;;;;;;6.93;4.70;;;;;;;24.11;100.00;99074.06;5113125;28;20532;-80
2022/06/05 08:04:00;;;;;;;5.40;4.87;;;;;;;23.79;100.00;99089.00;5114167;28;21002;-80
2022/06/05 08:06:27;;;;;;;5.47;4.93;;;;;;;23.58;100.00;99086.91;5114116;28;20786;-79
2022/06/05 08:08:54;;;;;;;4.53;4.13;;;;;;;23.52;100.00;99085.78;5113980;28;20504;-79
2022/06/05 08:11:21;;;;;;;4.73;4.30;;;;;;;23.72;100.00;99090.75;5113283;28;20437;-81
2022/06/05 08:13:47;;;;;;;6.20;4.80;;;;;;;23.45;100.00;99083.94;5113672;28;20418;-80
2022/06/05 08:16:14;;;;;;;5.30;4.30;;;;;;;23.48;100.00;99078.94;5113682;28;20945;-79
2022/06/05 08:18:41;;;;;;;5.73;4.80;;;;;;;23.50;100.00;99078.78;5113199;28;20945;-80
2022/06/05 08:21:09;;;;;;;5.97;4.87;;;;;;;23.57;100.00;99076.13;5113569;27;20524;-80
2022/06/05 08:23:36;;;;;;;5.70;5.10;;;;;;;23.58;100.00;99072.34;5113326;28;20461;-80
2022/06/05 08:26:02;;;;;;;6.83;4.97;;;;;;;23.71;100.00;99067.91;5113890;28;20437;-79
2022/06/05 08:28:29;;;;;;;8.30;4.33;;;;;;;23.79;100.00;99064.28;5113640;28;20512;-79
2022/06/05 08:30:56;;;;;;;5.43;4.60;;;;;;;23.83;100.00;99064.75;5113537;28;20524;-81
2022/06/05 08:33:23;;;;;;;4.80;4.40;;;;;;;24.42;100.00;99072.16;5113157;28;20568;-80
2022/06/05 08:35:50;;;;;;;6.17;4.57;;;;;;;24.85;100.00;99069.53;5112126;27;20421;-80
2022/06/05 08:41:27;;;;;;;6.73;4.97;;;;;;;25.27;100.00;99076.16;5113004;28;20534;-80
2022/06/05 08:44:02;;;;;;;7.60;4.87;;;;;;;25.47;99.35;99079.97;5112863;28;20433;-80
2022/06/05 08:46:36;;;;;;;7.90;5.20;;;;;;;25.09;100.00;99080.19;5113088;28;20451;-79
2022/06/05 08:49:09;;;;;;;5.13;4.60;;;;;;;25.25;100.00;99070.00;5113253;28;20886;-79
2022/06/05 08:51:47;;;;;;;6.40;5.20;;;;;;;25.16;99.85;99074.75;5112845;28;20436;-80
2022/06/05 08:54:19;;;;;;;8.30;5.30;;;;;;;24.93;100.00;99070.28;5112708;28;20421;-81
2022/06/05 08:56:50;;;;;;;5.83;5.37;;;;;;;24.85;100.00;99064.03;5112788;28;20514;-80
2022/06/05 08:59:23;;;;;;;5.63;5.13;;;;;;;25.01;100.00;99061.06;5113366;28;20428;-80
2022/06/05 09:01:58;;;;;;;5.53;5.07;;;;;;;25.22;100.00;99059.38;5113140;28;20433;-80
2022/06/05 09:04:39;;;;;;;5.87;5.27;;;;;;;25.83;94.98;99056.09;5114023;28;20772;-80
2022/06/05 09:07:11;;;;;;;5.33;4.83;;;;;;;26.16;91.29;99056.31;5112990;28;20433;-79
2022/06/05 09:09:43;;;;;;;5.17;4.67;;;;;;;26.42;88.12;99059.22;5113313;28;20468;-78
2022/06/05 09:12:18;;;;;;;6.50;5.23;;;;;;;26.70;86.87;99046.44;5112557;28;20461;-82
2022/06/05 09:14:53;;;;;;;5.07;4.57;;;;;;;26.74;84.78;99047.72;5112848;28;20519;-79
2022/06/05 09:17:21;;;;;;;5.10;4.70;;;;;;;26.66;86.17;99048.78;5112525;28;20567;-79
2022/06/05 09:19:51;;;;;;;6.63;4.60;;;;;;;26.50;88.15;99043.56;5113163;28;20508;-78
2022/06/05 09:22:20;;;;;;;5.03;4.53;;;;;;;26.68;85.77;99040.25;5112394;28;20439;-78
2022/06/05 09:25:06;;;;;;;6.03;4.90;;;;;;;27.09;82.54;99031.00;5112857;28;20508;-79
2022/06/05 09:27:45;;;;;;;5.50;4.97;;;;;;;27.15;82.07;99033.78;5112990;28;20473;-79
2022/06/05 09:30:20;;;;;;;5.53;4.07;;;;;;;27.06;84.07;99035.06;5112662;28;20446;-79
2022/06/05 09:33:01;;;;;;;5.20;4.70;;;;;;;27.20;81.64;99031.31;5112668;28;20479;-80
2022/06/05 09:35:33;;;;;;;6.50;4.40;;;;;;;27.45;81.60;99036.19;5112372;28;20433;-80
2022/06/05 09:38:06;;;;;;;5.80;3.80;;;;;;;27.17;80.04;99019.78;5112624;28;20516;-80
2022/06/05 09:40:37;;;;;;;4.57;3.80;;;;;;;26.90;82.03;99028.00;5112263;28;20433;-79
2022/06/05 09:43:16;;;;;;;4.40;3.00;;;;;;;26.56;79.71;99020.69;5112816;28;20871;-79
2022/06/05 09:45:56;;;;;;;4.57;3.07;;;;;;;26.80;80.38;99020.13;5111880;28;20464;-78
2022/06/05 09:48:31;;;;;;;4.90;3.20;;;;;;;27.15;78.15;99013.59;5117432;28;20938;-79
2022/06/05 09:50:58;;;;;;;3.43;2.73;;;;;;;27.35;77.82;99016.41;5117578;28;20416;-79
2022/06/05 09:53:29;;;;;;;6.07;2.27;;;;;;;27.40;73.79;99011.94;5116996;28;20493;-78
2022/06/05 09:56:13;;;;;;;3.97;2.50;;;;;;;27.38;75.79;99018.75;5116622;27;20860;-79
2022/06/05 09:58:51;;;;;;;4.20;2.63;;;;;;;27.20;75.23;99006.44;5117468;28;20429;-77
2022/06/05 10:01:28;;;;;;;3.73;2.23;;;;;;;26.83;77.06;99008.66;5117315;28;20401;-78
2022/06/05 10:03:57;;;;;;;5.87;2.97;;;;;;;26.94;77.68;99011.88;5116878;28;20456;-79
2022/06/05 10:06:35;;;;;;;4.03;2.50;;;;;;;26.76;77.76;99009.72;5115541;28;20543;-79
2022/06/05 10:09:08;;;;;;;4.37;2.60;;;;;;;26.80;78.26;99002.72;5115298;28;20440;-80
2022/06/05 10:11:41;;;;;;;3.70;2.73;;;;;;;27.34;74.66;99007.28;5117423;28;20766;-77
2022/06/05 10:14:19;;;;;;;4.27;2.13;;;;;;;27.43;72.25;99010.69;5115782;28;20522;-78
2022/06/05 10:16:50;;;;;;;4.23;2.10;;;;;;;27.11;70.94;98996.59;5115216;28;20825;-79
2022/06/05 10:19:30;;;;;;;4.00;1.70;;;;;;;27.35;68.69;99000.69;5115541;28;20423;-79
2022/06/05 10:22:06;;;;;;;2.37;1.90;;;;;;;27.45;67.64;99003.00;5115315;28;20439;-80
2022/06/05 10:24:45;;;;;;;8.63;2.33;;;;;;;27.72;65.03;99005.75;5115420;28;20432;-79
2022/06/05 10:27:16;;;;;;;4.13;2.00;;;;;;;27.36;67.60;99004.28;5115669;28;20436;-80
2022/06/05 10:29:48;;;;;;;3.67;2.17;;;;;;;27.92;65.66;98995.53;5115796;28;20532;-80
2022/06/05 10:32:22;;;;;;;3.43;1.93;;;;;;;28.17;64.39;98986.53;5115100;28;20432;-79
2022/06/05 10:34:55;;;;;;;4.40;2.00;;;;;;;27.12;69.89;98980.88;5115992;28;20433;-80
2022/06/05 10:37:29;;;;;;;2.10;2.00;;;;;;;26.45;75.67;98971.56;5115111;28;20778;-80
2022/06/05 10:40:07;;;;;;;2.17;1.60;;;;;;;25.81;81.24;98979.06;5115628;28;20480;-79
2022/06/05 10:42:43;;;;;;;2.47;2.10;;;;;;;25.84;83.11;98983.34;5115357;28;20429;-80
2022/06/05 10:45:30;;;;;;;3.70;2.40;;;;;;;26.61;73.74;98990.53;5115232;28;20484;-80
2022/06/05 10:48:10;;;;;;;5.03;2.10;;;;;;;26.22;74.00;99000.34;5095156;28;20914;-80
2022/06/05 10:50:45;;;;;;;3.40;2.27;;;;;;;26.14;74.22;98993.09;5095148;28;20512;-79
2022/06/05 10:53:17;;;;;;;14.93;2.50;;;;;;;25.93;74.29;98991.25;5094744;28;20530;-80
2022/06/05 10:55:59;;;;;;;2.87;1.93;;;;;;;25.76;75.33;98995.38;5099957;28;20536;-80
2022/06/05 10:58:36;;;;;;;2.10;1.83;;;;;;;26.05;75.79;98996.22;5113794;27;20507;-79
2022/06/05 11:01:20;;;;;;;6.30;2.90;;;;;;;26.17;75.17;98987.16;5115130;28;20467;-80
2022/06/05 11:03:56;;;;;;;3.83;2.20;;;;;;;26.51;73.93;98987.31;5114941;28;20417;-80
2022/06/05 11:06:36;;;;;;;4.20;2.20;;;;;;;26.61;73.50;98987.78;5114110;28;20855;-80
2022/06/05 11:09:16;;;;;;;4.33;2.57;;;;;;;26.27;73.17;98985.94;5114730;28;20432;-80
2022/06/05 11:14:43;;;;;;;5.03;2.17;;;;;;;25.65;75.92;98990.44;5114658;28;20453;-80
2022/06/05 11:17:31;;;;;;;4.03;1.73;;;;;;;25.94;73.82;98987.47;5114456;28;20475;-81
2022/06/05 11:20:09;;;;;;;2.90;1.73;;;;;;;25.49;76.11;98997.09;5115100;28;21103;-81
2022/06/05 11:22:39;;;;;;;3.60;1.90;;;;;;;25.17;76.82;98989.16;5114617;28;20508;-81
2022/06/05 11:25:22;;;;;;;2.83;2.00;;;;;;;25.25;78.07;99003.88;5113962;28;20418;-81
2022/06/05 11:27:58;;;;;;;3.20;2.03;;;;;;;25.32;78.95;98999.28;5105138;28;20464;-81
2022/06/05 11:30:35;;;;;;;3.17;2.30;;;;;;;26.04;74.94;98986.25;5114162;27;20472;-81
2022/06/05 11:33:11;;;;;;;5.07;2.50;;;;;;;26.14;72.63;98986.69;5114213;28;20460;-80
2022/06/05 11:35:49;;;;;;;5.83;1.93;;;;;;;26.09;73.60;98980.97;5114539;27;20946;-81
2022/06/05 11:38:30;;;;;;;2.70;1.83;;;;;;;25.66;76.62;98989.38;5114120;28;20856;-81
2022/06/05 11:41:04;;;;;;;4.53;2.97;;;;;;;24.64;81.84;99002.38;5114633;28;21349;-80
2022/06/05 11:43:33;;;;;;;3.70;1.90;;;;;;;23.93;95.27;99027.69;5114381;28;20429;-80
2022/06/05 11:46:12;;;;;;;6.67;2.40;;;;;;;21.11;100.00;99049.63;5114344;28;20797;-79
2022/06/05 11:48:42;;;;;;;2.60;2.03;;;;;;;20.55;100.00;99073.94;5113462;28;21249;-80
2022/06/05 11:51:19;;;;;;;6.30;2.63;;;;;;;20.65;100.00;99071.13;5113817;28;20425;-88
2022/06/05 11:53:55;;;;;;;2.80;2.40;;;;;;;20.90;100.00;99067.41;5115170;28;20557;-88
2022/06/05 11:56:39;;;;;;;4.23;2.00;;;;;;;21.12;100.00;99063.16;5114753;28;20515;-88
2022/06/05 11:59:17;;;;;;;2.57;1.60;;;;;;;21.52;100.00;99050.50;5114271;27;20461;-88